Time;durP1;ratioP1;P1;durP2;ratioP2;P2;SDS_P1;SDS_P2;PMS_P1;PMS_P2;Temp;Humidity;BMP_temperature;BMP_pressure;BME280_temperature;BME280_humidity;BME280_pressure;Samples;Min_cycle;Max_cycle;Signal;HPM_P1;HPM_P2
2023/08/14 00:01:17;;;;;;;4.87;3.07;;;;;;;;;;5031571;28;20206;-50
2023/08/14 00:03:43;;;;;;;5.53;3.00;;;;;;;;;;5030255;28;20202;-52
2023/08/14 00:06:10;;;;;;;4.80;2.90;;;;;;;;;;5031896;28;20260;-50
2023/08/14 00:08:36;;;;;;;3.97;2.60;;;;;;;;;;5031825;28;20236;-50
2023/08/14 00:11:03;;;;;;;3.73;2.70;;;;;;;;;;5031315;28;20237;-50
2023/08/14 00:13:30;;;;;;;3.23;2.57;;;;;;;;;;5029870;28;20211;-50
2023/08/14 00:15:56;;;;;;;4.60;2.83;;;;;;;;;;5030040;28;20222;-50
2023/08/14 00:18:22;;;;;;;3.63;2.30;;;;;;;;;;5030132;28;20200;-50
2023/08/14 00:20:48;;;;;;;6.40;2.50;;;;;;;;;;5031807;28;20201;-49
2023/08/14 00:23:14;;;;;;;4.47;2.53;;;;;;;;;;5031537;28;20268;-49
2023/08/14 00:25:40;;;;;;;4.60;2.70;;;;;;;;;;5031381;28;20724;-49
2023/08/14 00:28:07;;;;;;;3.93;2.30;;;;;;;;;;5031545;28;20231;-49
2023/08/14 00:30:33;;;;;;;2.77;2.50;;;;;;;;;;5031693;28;20579;-49
2023/08/14 00:32:59;;;;;;;4.30;2.47;;;;;;;;;;5031568;28;20245;-50
2023/08/14 00:35:25;;;;;;;4.50;2.60;;;;;;;;;;5031360;28;20286;-49
2023/08/14 00:37:51;;;;;;;3.07;2.43;;;;;;;;;;5031662;28;20661;-49
2023/08/14 00:40:17;;;;;;;3.83;2.57;;;;;;;;;;5031275;28;20198;-50
2023/08/14 00:42:47;;;;;;;4.17;2.53;;;;;;;;;;5031403;28;20220;-49
2023/08/14 00:45:15;;;;;;;2.70;2.30;;;;;;;;;;5031261;28;20199;-50
2023/08/14 00:47:42;;;;;;;3.93;2.40;;;;;;;;;;5028796;28;20232;-49
2023/08/14 00:50:09;;;;;;;4.33;2.03;;;;;;;;;;5030951;28;20200;-54
2023/08/14 00:52:37;;;;;;;6.00;2.43;;;;;;;;;;5031107;28;20200;-49
2023/08/14 00:55:07;;;;;;;3.90;2.27;;;;;;;;;;5030810;28;20205;-50
2023/08/14 00:57:33;;;;;;;4.10;2.43;;;;;;;;;;5030836;28;20197;-49
2023/08/14 01:00:00;;;;;;;3.27;2.40;;;;;;;;;;5030653;28;20202;-48
2023/08/14 01:02:28;;;;;;;3.43;2.20;;;;;;;;;;5030585;28;20231;-49
2023/08/14 01:04:54;;;;;;;4.27;2.80;;;;;;;;;;5030815;28;20207;-48
2023/08/14 01:07:20;;;;;;;2.87;2.53;;;;;;;;;;5030823;28;20201;-49
2023/08/14 01:09:46;;;;;;;4.70;2.40;;;;;;;;;;5030756;28;20199;-49
2023/08/14 01:12:19;;;;;;;6.67;6.07;;;;;;;;;;5030588;28;20705;-49
2023/08/14 01:14:47;;;;;;;4.73;2.40;;;;;;;;;;5030679;28;20305;-49
2023/08/14 01:17:14;;;;;;;3.47;2.30;;;;;;;;;;5030542;28;20204;-49
2023/08/14 01:19:42;;;;;;;3.00;2.30;;;;;;;;;;5030615;28;20203;-49
2023/08/14 01:22:10;;;;;;;3.00;2.10;;;;;;;;;;5030495;28;20328;-51
2023/08/14 01:24:44;;;;;;;2.87;2.30;;;;;;;;;;5030581;28;20318;-49
2023/08/14 01:27:12;;;;;;;2.87;2.50;;;;;;;;;;5030537;28;20229;-49
2023/08/14 01:29:39;;;;;;;8.00;2.63;;;;;;;;;;5030678;28;20237;-48
2023/08/14 01:32:05;;;;;;;4.57;2.90;;;;;;;;;;5030632;28;20197;-48
2023/08/14 01:34:31;;;;;;;4.03;2.50;;;;;;;;;;5030332;28;20197;-48
2023/08/14 01:37:00;;;;;;;4.27;2.57;;;;;;;;;;5030663;28;20469;-48
2023/08/14 01:39:29;;;;;;;4.07;2.60;;;;;;;;;;5030228;28;20197;-49
2023/08/14 01:42:00;;;;;;;5.17;4.10;;;;;;;;;;5030370;28;20205;-49
2023/08/14 01:44:27;;;;;;;6.00;5.40;;;;;;;;;;5030289;28;20735;-49
2023/08/14 01:46:54;;;;;;;3.13;2.83;;;;;;;;;;5030747;28;20209;-48
2023/08/14 01:49:20;;;;;;;2.63;2.20;;;;;;;;;;5030129;28;20301;-48
2023/08/14 01:51:47;;;;;;;3.60;2.70;;;;;;;;;;5030094;28;20202;-48
2023/08/14 01:54:13;;;;;;;3.73;2.43;;;;;;;;;;5029937;28;20204;-48
2023/08/14 01:56:39;;;;;;;3.50;2.40;;;;;;;;;;5030187;28;20255;-50
2023/08/14 01:59:05;;;;;;;3.40;2.37;;;;;;;;;;5032595;28;20189;-49
2023/08/14 02:01:33;;;;;;;5.17;2.47;;;;;;;;;;5033554;28;20196;-48
2023/08/14 02:03:59;;;;;;;4.40;2.77;;;;;;;;;;5033742;28;20630;-48
2023/08/14 02:06:25;;;;;;;4.97;2.90;;;;;;;;;;5033566;28;20670;-49
2023/08/14 02:08:51;;;;;;;4.20;2.80;;;;;;;;;;5033669;28;20221;-49
2023/08/14 02:11:17;;;;;;;7.30;2.23;;;;;;;;;;5033632;28;20224;-47
2023/08/14 02:13:43;;;;;;;5.83;2.73;;;;;;;;;;5033607;28;20220;-48
2023/08/14 02:16:09;;;;;;;3.27;2.50;;;;;;;;;;5033460;28;20570;-48
2023/08/14 02:18:36;;;;;;;3.27;2.47;;;;;;;;;;5033629;28;20236;-47
2023/08/14 02:21:02;;;;;;;6.67;2.70;;;;;;;;;;5033518;28;20228;-48
2023/08/14 02:23:28;;;;;;;2.87;2.27;;;;;;;;;;5033186;28;20708;-48
2023/08/14 02:25:55;;;;;;;5.33;2.60;;;;;;;;;;5033023;28;20605;-47
2023/08/14 02:28:21;;;;;;;2.90;2.30;;;;;;;;;;5033291;28;20233;-47
2023/08/14 02:30:47;;;;;;;3.93;2.37;;;;;;;;;;5033337;28;20196;-48
2023/08/14 02:33:13;;;;;;;5.07;3.30;;;;;;;;;;5033135;28;20197;-48
2023/08/14 02:35:40;;;;;;;2.93;2.63;;;;;;;;;;5033208;28;20212;-48
2023/08/14 02:38:07;;;;;;;5.20;2.60;;;;;;;;;;5033152;28;20582;-48
2023/08/14 02:40:33;;;;;;;3.23;2.40;;;;;;;;;;5033090;28;20663;-47
2023/08/14 02:43:00;;;;;;;2.80;2.33;;;;;;;;;;5033082;28;20288;-48
2023/08/14 02:45:26;;;;;;;4.70;2.40;;;;;;;;;;5032980;28;20760;-48
2023/08/14 02:47:52;;;;;;;4.43;2.60;;;;;;;;;;5032946;28;20253;-47
2023/08/14 02:50:21;;;;;;;5.37;2.67;;;;;;;;;;5032830;28;20204;-47
2023/08/14 02:52:48;;;;;;;3.23;2.80;;;;;;;;;;5032951;28;20561;-48
2023/08/14 02:55:14;;;;;;;2.70;2.50;;;;;;;;;;5032825;28;20215;-48
2023/08/14 02:57:40;;;;;;;4.03;2.77;;;;;;;;;;5033047;28;20240;-49
2023/08/14 03:00:07;;;;;;;4.83;2.67;;;;;;;;;;5033194;28;20226;-50
2023/08/14 03:02:34;;;;;;;4.80;3.20;;;;;;;;;;5032928;28;20251;-49
2023/08/14 03:05:00;;;;;;;5.13;2.70;;;;;;;;;;5032725;28;20206;-49
2023/08/14 03:07:26;;;;;;;2.87;2.60;;;;;;;;;;5032373;28;20693;-49
2023/08/14 03:09:53;;;;;;;4.17;2.50;;;;;;;;;;5031907;28;20224;-49
2023/08/14 03:12:19;;;;;;;3.03;2.57;;;;;;;;;;5032673;28;20273;-49
2023/08/14 03:14:45;;;;;;;3.03;2.43;;;;;;;;;;5032583;28;20197;-48
2023/08/14 03:17:11;;;;;;;2.60;2.40;;;;;;;;;;5032403;28;20196;-48
2023/08/14 03:19:37;;;;;;;4.90;2.70;;;;;;;;;;5032625;28;20288;-49
2023/08/14 03:22:03;;;;;;;3.00;2.50;;;;;;;;;;5032269;28;20256;-48
2023/08/14 03:24:29;;;;;;;5.10;2.87;;;;;;;;;;5032043;28;20260;-48
2023/08/14 03:26:56;;;;;;;4.93;2.40;;;;;;;;;;5032289;28;20593;-48
2023/08/14 03:29:24;;;;;;;5.23;2.97;;;;;;;;;;5031985;28;20225;-49
2023/08/14 03:31:50;;;;;;;5.43;2.90;;;;;;;;;;5032388;28;20746;-49
2023/08/14 03:34:16;;;;;;;3.10;2.70;;;;;;;;;;5032105;28;20207;-48
2023/08/14 03:36:42;;;;;;;3.60;2.30;;;;;;;;;;5031997;28;20201;-49
2023/08/14 03:39:08;;;;;;;4.87;2.63;;;;;;;;;;5031907;28;20246;-49
2023/08/14 03:41:34;;;;;;;3.30;2.40;;;;;;;;;;5032215;28;20189;-48
2023/08/14 03:44:02;;;;;;;3.70;2.50;;;;;;;;;;5031970;28;20219;-48
2023/08/14 03:46:28;;;;;;;4.37;2.67;;;;;;;;;;5031908;28;20706;-49
2023/08/14 03:48:54;;;;;;;2.60;2.23;;;;;;;;;;5031822;28;20221;-49
2023/08/14 03:51:20;;;;;;;3.77;2.80;;;;;;;;;;5031894;28;20266;-49
2023/08/14 03:53:46;;;;;;;3.73;2.47;;;;;;;;;;5031677;28;20224;-49
2023/08/14 03:56:12;;;;;;;3.33;2.87;;;;;;;;;;5031782;28;20207;-49
2023/08/14 03:58:38;;;;;;;4.60;3.20;;;;;;;;;;5031893;28;20194;-49
2023/08/14 04:01:05;;;;;;;3.90;2.83;;;;;;;;;;5031918;28;20196;-48
2023/08/14 04:03:31;;;;;;;3.93;2.87;;;;;;;;;;5031728;28;20201;-49
2023/08/14 04:05:57;;;;;;;4.23;2.80;;;;;;;;;;5031222;28;20741;-49
2023/08/14 04:08:24;;;;;;;3.57;2.33;;;;;;;;;;5031126;28;20227;-49
2023/08/14 04:10:53;;;;;;;2.43;2.17;;;;;;;;;;5031588;28;20203;-49
2023/08/14 04:13:19;;;;;;;4.73;2.77;;;;;;;;;;5031067;28;20216;-49
2023/08/14 04:15:45;;;;;;;5.73;2.70;;;;;;;;;;5031301;28;20205;-49
2023/08/14 04:18:13;;;;;;;3.53;2.30;;;;;;;;;;5031191;28;20193;-49
2023/08/14 04:20:39;;;;;;;3.07;2.70;;;;;;;;;;5031043;28;20602;-49
2023/08/14 04:23:06;;;;;;;4.90;2.73;;;;;;;;;;5030540;28;20695;-49
2023/08/14 04:25:32;;;;;;;2.90;2.40;;;;;;;;;;5031001;28;20232;-49
2023/08/14 04:27:58;;;;;;;3.50;2.80;;;;;;;;;;5031292;28;20271;-49
2023/08/14 04:30:25;;;;;;;4.67;2.60;;;;;;;;;;5031160;28;20326;-49
2023/08/14 04:32:51;;;;;;;2.60;2.40;;;;;;;;;;5031375;28;20205;-49
2023/08/14 04:35:19;;;;;;;2.97;2.40;;;;;;;;;;5030944;28;20272;-49
2023/08/14 04:37:45;;;;;;;3.07;2.70;;;;;;;;;;5031243;28;20229;-49
2023/08/14 04:40:11;;;;;;;2.93;2.47;;;;;;;;;;5030858;28;20231;-49
2023/08/14 04:42:37;;;;;;;2.80;2.50;;;;;;;;;;5031210;28;20193;-49
2023/08/14 04:45:03;;;;;;;2.67;2.47;;;;;;;;;;5030905;28;20205;-49
2023/08/14 04:47:29;;;;;;;3.77;2.87;;;;;;;;;;5030654;28;20231;-49
2023/08/14 04:49:55;;;;;;;4.43;2.80;;;;;;;;;;5030878;28;20201;-50
2023/08/14 04:52:23;;;;;;;6.43;2.80;;;;;;;;;;5030896;28;20329;-49
2023/08/14 04:54:49;;;;;;;4.00;3.00;;;;;;;;;;5030870;28;20200;-50
2023/08/14 04:57:15;;;;;;;6.67;3.20;;;;;;;;;;5030695;28;20248;-49
2023/08/14 04:59:41;;;;;;;5.40;3.20;;;;;;;;;;5030587;28;20200;-49
2023/08/14 05:02:08;;;;;;;3.00;2.73;;;;;;;;;;5030815;28;20200;-50
2023/08/14 05:04:34;;;;;;;3.73;3.00;;;;;;;;;;5030686;28;20656;-50
2023/08/14 05:07:00;;;;;;;4.23;2.70;;;;;;;;;;5030854;28;20296;-49
2023/08/14 05:09:27;;;;;;;3.53;2.70;;;;;;;;;;5030303;28;20700;-50
2023/08/14 05:11:53;;;;;;;3.90;2.50;;;;;;;;;;5030807;28;20206;-50
2023/08/14 05:14:19;;;;;;;4.70;2.77;;;;;;;;;;5030662;28;20284;-50
2023/08/14 05:16:45;;;;;;;3.97;2.60;;;;;;;;;;5030487;28;20224;-49
2023/08/14 05:19:11;;;;;;;3.63;2.60;;;;;;;;;;5030557;28;20201;-49
2023/08/14 05:21:37;;;;;;;3.57;2.70;;;;;;;;;;5030637;28;20233;-49
2023/08/14 05:24:03;;;;;;;2.30;2.10;;;;;;;;;;5030346;28;20257;-50
2023/08/14 05:26:30;;;;;;;4.90;2.70;;;;;;;;;;5030469;28;20226;-50
2023/08/14 05:28:57;;;;;;;3.50;2.50;;;;;;;;;;5030321;28;20223;-50
2023/08/14 05:31:23;;;;;;;4.53;2.50;;;;;;;;;;5030509;28;20615;-50
2023/08/14 05:33:49;;;;;;;3.37;2.77;;;;;;;;;;5032809;28;20665;-50
2023/08/14 05:36:15;;;;;;;4.37;2.80;;;;;;;;;;5034301;28;20194;-50
2023/08/14 05:38:41;;;;;;;4.03;3.07;;;;;;;;;;5034461;28;20241;-50
2023/08/14 05:41:07;;;;;;;3.63;2.70;;;;;;;;;;5034420;28;20196;-50
2023/08/14 05:43:34;;;;;;;3.10;2.63;;;;;;;;;;5034240;28;20201;-50
2023/08/14 05:46:00;;;;;;;4.87;3.20;;;;;;;;;;5034169;28;20305;-50
2023/08/14 05:48:26;;;;;;;5.17;3.00;;;;;;;;;;5033705;28;20219;-50
2023/08/14 05:50:52;;;;;;;6.10;3.03;;;;;;;;;;5034375;28;20206;-50
2023/08/14 05:53:19;;;;;;;3.50;2.63;;;;;;;;;;5034074;28;20844;-50
2023/08/14 05:55:45;;;;;;;4.20;2.90;;;;;;;;;;5034081;28;20203;-50
2023/08/14 05:58:11;;;;;;;4.20;2.80;;;;;;;;;;5034005;28;20203;-50
2023/08/14 06:00:39;;;;;;;4.47;2.30;;;;;;;;;;5034062;28;20196;-50
2023/08/14 06:03:05;;;;;;;5.10;2.70;;;;;;;;;;5034004;28;20289;-50
2023/08/14 06:05:31;;;;;;;5.93;2.93;;;;;;;;;;5033682;28;20646;-55
2023/08/14 06:07:58;;;;;;;3.03;2.50;;;;;;;;;;5033760;28;20688;-49
2023/08/14 06:10:24;;;;;;;3.80;2.67;;;;;;;;;;5033622;28;20295;-50
2023/08/14 06:12:50;;;;;;;6.00;2.73;;;;;;;;;;5033855;28;20291;-49
2023/08/14 06:15:18;;;;;;;8.20;2.80;;;;;;;;;;5033546;28;20204;-50
2023/08/14 06:17:46;;;;;;;5.13;3.30;;;;;;;;;;5033553;28;20588;-49
2023/08/14 06:20:12;;;;;;;6.13;2.87;;;;;;;;;;5033420;28;20208;-49
2023/08/14 06:22:39;;;;;;;3.90;2.50;;;;;;;;;;5033435;28;20246;-49
2023/08/14 06:25:06;;;;;;;2.83;2.40;;;;;;;;;;5033293;28;20236;-50
2023/08/14 06:27:32;;;;;;;3.43;2.67;;;;;;;;;;5033298;28;20207;-49
2023/08/14 06:29:58;;;;;;;4.50;2.77;;;;;;;;;;5033487;28;20306;-50
2023/08/14 06:32:24;;;;;;;3.83;2.63;;;;;;;;;;5033468;28;20200;-50
2023/08/14 06:34:51;;;;;;;2.50;2.27;;;;;;;;;;5033525;28;20259;-50
2023/08/14 06:37:17;;;;;;;6.00;2.60;;;;;;;;;;5033395;28;20755;-50
2023/08/14 06:39:43;;;;;;;3.73;2.43;;;;;;;;;;5033446;28;20626;-50
2023/08/14 06:42:09;;;;;;;5.17;2.60;;;;;;;;;;5033203;28;20612;-50
2023/08/14 06:44:35;;;;;;;3.50;2.50;;;;;;;;;;5032228;28;20209;-51
2023/08/14 06:47:01;;;;;;;3.07;2.50;;;;;;;;;;5033048;28;20209;-51
2023/08/14 06:49:28;;;;;;;4.17;2.40;;;;;;;;;;5032874;28;20588;-50
2023/08/14 06:51:55;;;;;;;3.93;2.30;;;;;;;;;;5033145;28;20231;-50
2023/08/14 06:54:21;;;;;;;5.50;2.53;;;;;;;;;;5032978;28;20694;-50
2023/08/14 06:56:47;;;;;;;4.50;2.37;;;;;;;;;;5033166;28;20201;-50
2023/08/14 06:59:13;;;;;;;4.23;2.30;;;;;;;;;;5032780;28;20196;-50
2023/08/14 07:01:39;;;;;;;6.60;2.40;;;;;;;;;;5032833;28;20284;-52
2023/08/14 07:04:06;;;;;;;3.67;2.23;;;;;;;;;;5033034;28;20189;-51
2023/08/14 07:06:32;;;;;;;3.00;2.20;;;;;;;;;;5032487;28;20678;-50
2023/08/14 07:08:59;;;;;;;4.00;2.57;;;;;;;;;;5032256;28;20564;-50
2023/08/14 07:11:25;;;;;;;3.93;2.13;;;;;;;;;;5032534;28;20276;-51
2023/08/14 07:13:51;;;;;;;3.57;2.47;;;;;;;;;;5026278;28;20233;-52
2023/08/14 07:16:17;;;;;;;4.83;2.20;;;;;;;;;;5032007;28;20204;-52
2023/08/14 07:18:43;;;;;;;3.73;2.00;;;;;;;;;;5032419;28;20201;-50
2023/08/14 07:21:09;;;;;;;6.30;2.30;;;;;;;;;;5032178;28;20206;-52
2023/08/14 07:23:36;;;;;;;5.17;2.60;;;;;;;;;;5031920;28;20237;-51
2023/08/14 07:26:03;;;;;;;4.53;2.50;;;;;;;;;;5028235;28;20203;-51
2023/08/14 07:28:30;;;;;;;5.43;2.33;;;;;;;;;;5032048;28;20649;-50
2023/08/14 07:30:56;;;;;;;4.77;2.10;;;;;;;;;;5032264;28;20207;-52
2023/08/14 07:33:22;;;;;;;5.17;2.30;;;;;;;;;;5032176;28;20233;-52
2023/08/14 07:35:48;;;;;;;2.90;2.10;;;;;;;;;;5032210;28;20206;-51
2023/08/14 07:38:14;;;;;;;3.73;2.13;;;;;;;;;;5031971;28;20222;-52
2023/08/14 07:40:40;;;;;;;3.43;2.33;;;;;;;;;;5032036;28;20209;-52
2023/08/14 07:43:07;;;;;;;3.40;2.00;;;;;;;;;;5032170;28;20200;-51
2023/08/14 07:45:33;;;;;;;4.00;2.50;;;;;;;;;;5031874;28;20571;-53
2023/08/14 07:47:59;;;;;;;5.50;2.40;;;;;;;;;;5031927;28;20271;-52
2023/08/14 07:50:25;;;;;;;4.60;2.10;;;;;;;;;;5031029;28;20201;-52
2023/08/14 07:52:51;;;;;;;5.20;2.33;;;;;;;;;;5031932;28;20252;-52
2023/08/14 07:55:17;;;;;;;3.37;2.10;;;;;;;;;;5031587;28;20246;-51
2023/08/14 07:57:45;;;;;;;3.63;1.97;;;;;;;;;;5031543;28;20200;-51
2023/08/14 08:00:13;;;;;;;2.90;2.10;;;;;;;;;;5031795;28;20295;-51
2023/08/14 08:02:39;;;;;;;4.57;2.20;;;;;;;;;;5031656;28;20277;-52
2023/08/14 08:05:06;;;;;;;4.73;2.20;;;;;;;;;;5031738;28;20222;-52
2023/08/14 08:07:32;;;;;;;5.53;2.30;;;;;;;;;;5031443;28;20211;-52
2023/08/14 08:09:58;;;;;;;4.63;2.30;;;;;;;;;;5031336;28;20255;-51
2023/08/14 08:12:24;;;;;;;2.70;2.00;;;;;;;;;;5031451;28;20390;-52
2023/08/14 08:14:50;;;;;;;3.10;2.20;;;;;;;;;;5031596;28;20196;-51
2023/08/14 08:17:17;;;;;;;2.70;2.03;;;;;;;;;;5031293;28;20242;-51
2023/08/14 08:19:45;;;;;;;3.80;2.17;;;;;;;;;;5031371;28;20200;-51
2023/08/14 08:22:11;;;;;;;4.10;2.53;;;;;;;;;;5031195;28;20217;-51
2023/08/14 08:24:38;;;;;;;3.70;2.20;;;;;;;;;;5030930;28;20658;-51
2023/08/14 08:27:04;;;;;;;3.00;2.10;;;;;;;;;;5031413;28;20201;-51
2023/08/14 08:29:30;;;;;;;3.00;2.40;;;;;;;;;;5031127;28;20290;-51
2023/08/14 08:31:56;;;;;;;3.60;2.20;;;;;;;;;;5031201;28;20207;-51
2023/08/14 08:34:23;;;;;;;2.77;1.90;;;;;;;;;;5028369;28;20201;-52
2023/08/14 08:36:49;;;;;;;3.87;2.10;;;;;;;;;;5031115;28;20200;-51
2023/08/14 08:39:15;;;;;;;3.57;2.27;;;;;;;;;;5030976;28;20198;-52
2023/08/14 08:41:43;;;;;;;2.70;1.70;;;;;;;;;;5030953;28;20264;-52
2023/08/14 08:44:10;;;;;;;3.23;2.30;;;;;;;;;;5030923;28;20768;-52
2023/08/14 08:46:37;;;;;;;3.30;2.13;;;;;;;;;;5030807;28;20643;-52
2023/08/14 08:49:03;;;;;;;4.37;2.03;;;;;;;;;;5030639;28;20587;-52
2023/08/14 08:51:31;;;;;;;3.73;2.00;;;;;;;;;;5030666;28;20210;-53
2023/08/14 08:53:57;;;;;;;4.27;2.30;;;;;;;;;;5030811;28;20210;-51
2023/08/14 08:56:23;;;;;;;3.53;2.47;;;;;;;;;;5030668;28;20565;-52
2023/08/14 08:58:49;;;;;;;5.53;2.50;;;;;;;;;;5030776;28;20198;-52
2023/08/14 09:01:15;;;;;;;;;;;;;;;;;;5026890;28;20191;-52
2023/08/14 09:03:41;;;;;;;2.70;2.10;;;;;;;;;;5029806;28;20597;-51
2023/08/14 09:06:07;;;;;;;4.17;2.27;;;;;;;;;;5030336;28;20194;-52
2023/08/14 09:08:35;;;;;;;2.33;1.97;;;;;;;;;;5029710;28;20219;-52
2023/08/14 09:11:01;;;;;;;5.27;2.53;;;;;;;;;;5030504;28;20210;-52
2023/08/14 09:13:27;;;;;;;3.30;1.83;;;;;;;;;;5030223;28;20199;-51
2023/08/14 09:15:53;;;;;;;7.03;2.23;;;;;;;;;;5030372;28;20199;-51
2023/08/14 09:18:19;;;;;;;3.90;2.10;;;;;;;;;;5030230;28;20728;-52
2023/08/14 09:20:45;;;;;;;3.47;2.33;;;;;;;;;;5030337;28;20257;-50
2023/08/14 09:23:14;;;;;;;3.20;1.90;;;;;;;;;;5030061;28;20720;-50
2023/08/14 09:25:45;;;;;;;2.67;2.03;;;;;;;;;;5030045;28;20664;-50
2023/08/14 09:28:11;;;;;;;4.60;2.10;;;;;;;;;;5030219;28;20572;-50
2023/08/14 09:30:38;;;;;;;4.43;2.43;;;;;;;;;;5030237;28;20198;-50
2023/08/14 09:33:07;;;;;;;3.50;2.30;;;;;;;;;;5030373;28;20240;-50
2023/08/14 09:35:34;;;;;;;4.97;2.37;;;;;;;;;;5030122;28;20577;-51
2023/08/14 09:38:00;;;;;;;3.77;2.00;;;;;;;;;;5029891;28;20302;-51
2023/08/14 09:40:26;;;;;;;4.07;2.30;;;;;;;;;;5029934;28;20249;-50
2023/08/14 09:42:53;;;;;;;2.67;2.07;;;;;;;;;;5030251;28;20192;-50
2023/08/14 09:45:23;;;;;;;4.50;2.07;;;;;;;;;;5030157;28;20201;-51
2023/08/14 09:47:50;;;;;;;4.63;2.17;;;;;;;;;;5030250;28;20204;-50
2023/08/14 09:50:16;;;;;;;4.23;2.40;;;;;;;;;;5029645;28;20216;-52
2023/08/14 09:52:43;;;;;;;2.33;2.00;;;;;;;;;;5030456;28;20308;-51
2023/08/14 09:55:09;;;;;;;3.43;2.30;;;;;;;;;;5030624;28;20209;-50
2023/08/14 09:57:35;;;;;;;4.93;2.30;;;;;;;;;;5030573;28;20224;-51
2023/08/14 10:00:03;;;;;;;4.13;2.57;;;;;;;;;;5030545;28;20255;-51
2023/08/14 10:02:32;;;;;;;5.23;2.23;;;;;;;;;;5030235;28;20220;-51
2023/08/14 10:04:58;;;;;;;3.03;2.50;;;;;;;;;;5030511;28;20270;-49
2023/08/14 10:07:25;;;;;;;6.53;2.60;;;;;;;;;;5030344;28;20210;-51
2023/08/14 10:09:52;;;;;;;4.20;2.13;;;;;;;;;;5030119;28;20240;-51
2023/08/14 10:12:22;;;;;;;4.07;2.23;;;;;;;;;;5030249;28;20199;-51
2023/08/14 10:14:52;;;;;;;4.70;2.20;;;;;;;;;;5030310;28;20261;-51
2023/08/14 10:17:25;;;;;;;3.23;2.20;;;;;;;;;;5028194;28;20204;-51
2023/08/14 10:19:52;;;;;;;4.47;2.43;;;;;;;;;;5030426;28;20205;-51
2023/08/14 10:22:19;;;;;;;4.17;2.27;;;;;;;;;;5027699;28;20596;-51
2023/08/14 10:24:46;;;;;;;3.50;2.20;;;;;;;;;;5033089;28;20661;-51
2023/08/14 10:27:12;;;;;;;7.17;2.23;;;;;;;;;;5033401;28;20218;-52
2023/08/14 10:29:39;;;;;;;5.33;2.70;;;;;;;;;;5029171;28;20220;-51
2023/08/14 10:32:06;;;;;;;3.07;2.33;;;;;;;;;;5031431;28;20204;-51
2023/08/14 10:34:33;;;;;;;2.97;2.30;;;;;;;;;;5032787;28;20216;-52
2023/08/14 10:36:59;;;;;;;5.93;2.73;;;;;;;;;;5032923;28;20674;-49
2023/08/14 10:39:33;;;;;;;7.10;2.60;;;;;;;;;;5032584;28;20200;-51
2023/08/14 10:41:59;;;;;;;5.53;2.30;;;;;;;;;;5033018;28;20207;-50
2023/08/14 10:44:31;;;;;;;3.97;2.37;;;;;;;;;;5032226;28;20196;-50
2023/08/14 10:47:04;;;;;;;3.70;2.40;;;;;;;;;;5032842;28;20197;-51
2023/08/14 10:49:30;;;;;;;5.10;2.17;;;;;;;;;;5032566;28;20232;-50
2023/08/14 10:52:01;;;;;;;4.73;2.20;;;;;;;;;;5032942;28;20214;-50
2023/08/14 10:54:36;;;;;;;5.47;2.40;;;;;;;;;;5032208;28;20579;-51
2023/08/14 10:57:07;;;;;;;4.40;2.20;;;;;;;;;;5032529;28;20207;-50
2023/08/14 10:59:34;;;;;;;6.33;2.50;;;;;;;;;;5032459;28;20196;-51
2023/08/14 11:02:05;;;;;;;4.10;2.30;;;;;;;;;;5032444;28;20202;-51
2023/08/14 11:04:31;;;;;;;4.00;2.20;;;;;;;;;;5032164;28;20200;-51
2023/08/14 11:07:07;;;;;;;5.13;2.33;;;;;;;;;;5032141;28;20204;-51
2023/08/14 11:09:34;;;;;;;4.77;2.70;;;;;;;;;;5032320;28;20231;-50
2023/08/14 11:12:02;;;;;;;4.27;2.40;;;;;;;;;;5032187;28;20200;-51
2023/08/14 11:14:28;;;;;;;4.07;1.97;;;;;;;;;;5032214;28;20707;-49
2023/08/14 11:16:54;;;;;;;3.23;2.33;;;;;;;;;;5032509;28;20664;-50
2023/08/14 11:19:20;;;;;;;3.77;2.47;;;;;;;;;;5032051;28;20195;-50
2023/08/14 11:21:47;;;;;;;4.20;2.47;;;;;;;;;;5032050;28;20550;-51
2023/08/14 11:24:15;;;;;;;3.70;2.33;;;;;;;;;;5031826;28;20237;-51
2023/08/14 11:26:41;;;;;;;3.50;1.90;;;;;;;;;;5032021;28;20195;-51
2023/08/14 11:29:07;;;;;;;3.60;2.17;;;;;;;;;;5032274;28;20232;-51
2023/08/14 11:31:33;;;;;;;3.90;2.10;;;;;;;;;;5027330;28;20192;-49
2023/08/14 11:33:59;;;;;;;3.63;2.20;;;;;;;;;;5030361;28;20708;-51
2023/08/14 11:36:25;;;;;;;3.27;2.00;;;;;;;;;;5032150;28;20206;-50
2023/08/14 11:38:51;;;;;;;3.27;2.20;;;;;;;;;;5030541;28;20209;-51
2023/08/14 11:41:19;;;;;;;4.37;2.27;;;;;;;;;;5032253;28;20598;-51
2023/08/14 11:43:45;;;;;;;3.47;2.13;;;;;;;;;;5031956;28;20207;-52
2023/08/14 11:46:11;;;;;;;4.60;2.43;;;;;;;;;;5031705;28;20211;-50
2023/08/14 11:48:38;;;;;;;3.30;1.93;;;;;;;;;;5031734;28;20572;-51
2023/08/14 11:51:05;;;;;;;5.03;2.50;;;;;;;;;;5032369;28;20208;-51
2023/08/14 11:53:31;;;;;;;6.17;2.50;;;;;;;;;;5032039;28;20276;-52
2023/08/14 11:55:57;;;;;;;4.13;2.20;;;;;;;;;;5032176;28;20199;-52
2023/08/14 11:58:25;;;;;;;3.50;2.30;;;;;;;;;;5031999;28;20204;-53
2023/08/14 12:00:51;;;;;;;2.87;2.00;;;;;;;;;;5032107;28;20690;-52
2023/08/14 12:03:17;;;;;;;6.30;2.03;;;;;;;;;;5032034;28;20254;-52
2023/08/14 12:05:44;;;;;;;3.50;2.03;;;;;;;;;;5031582;28;20195;-50
2023/08/14 12:08:10;;;;;;;6.33;2.10;;;;;;;;;;5031609;28;20279;-49
2023/08/14 12:10:36;;;;;;;4.43;2.30;;;;;;;;;;5031737;28;20266;-50
2023/08/14 12:13:02;;;;;;;3.53;2.00;;;;;;;;;;5031604;28;20201;-50
2023/08/14 12:15:31;;;;;;;5.10;2.10;;;;;;;;;;5031454;28;20200;-51
2023/08/14 12:17:57;;;;;;;3.80;2.87;;;;;;;;;;5030971;28;20209;-52
2023/08/14 12:20:23;;;;;;;2.93;2.00;;;;;;;;;;5031058;28;20224;-52
2023/08/14 12:22:50;;;;;;;3.40;1.97;;;;;;;;;;5031231;28;20255;-52
2023/08/14 12:25:18;;;;;;;2.63;2.00;;;;;;;;;;5031175;28;20250;-51
2023/08/14 12:27:45;;;;;;;3.03;1.97;;;;;;;;;;5031061;28;20316;-52
2023/08/14 12:30:11;;;;;;;5.73;1.97;;;;;;;;;;5031354;28;20787;-52
2023/08/14 12:32:44;;;;;;;3.83;1.80;;;;;;;;;;5031297;28;20204;-51
2023/08/14 12:35:10;;;;;;;3.47;2.30;;;;;;;;;;5031244;28;20204;-51
2023/08/14 12:37:36;;;;;;;3.60;2.17;;;;;;;;;;5031197;28;20197;-52
2023/08/14 12:40:08;;;;;;;5.80;3.57;;;;;;;;;;5031370;28;20288;-51
2023/08/14 12:42:34;;;;;;;3.47;2.40;;;;;;;;;;5030576;28;20202;-52
2023/08/14 12:45:00;;;;;;;4.40;2.17;;;;;;;;;;5031074;28;20199;-52
2023/08/14 12:47:26;;;;;;;4.87;2.33;;;;;;;;;;5031061;28;20221;-52
2023/08/14 12:49:54;;;;;;;10.23;3.33;;;;;;;;;;5031117;28;20598;-51
2023/08/14 12:52:26;;;;;;;4.20;2.20;;;;;;;;;;5031085;28;20202;-52
2023/08/14 12:55:14;;;;;;;3.47;2.20;;;;;;;;;;5028863;28;20214;-52
2023/08/14 12:57:43;;;;;;;3.23;2.07;;;;;;;;;;5019270;28;20204;-52
2023/08/14 13:00:23;;;;;;;;;;;;;;;;;;;;;
2023/08/14 13:02:49;;;;;;;3.90;2.13;;;;;;;;;;5021921;28;20225;-51
2023/08/14 13:05:39;;;;;;;4.63;2.20;;;;;;;;;;5029820;28;20193;-53
2023/08/14 13:11:13;;;;;;;3.27;2.20;;;;;;;;;;5030391;28;20244;-51
2023/08/14 13:13:47;;;;;;;4.17;2.30;;;;;;;;;;5029901;28;20227;-51
2023/08/14 13:16:17;;;;;;;5.33;1.93;;;;;;;;;;5029149;28;20196;-52
2023/08/14 13:18:43;;;;;;;3.07;2.10;;;;;;;;;;5002575;28;20207;-51
2023/08/14 13:21:09;;;;;;;3.77;1.80;;;;;;;;;;5029736;28;20653;-51
2023/08/14 13:23:36;;;;;;;3.73;2.23;;;;;;;;;;5029776;28;20666;-51
2023/08/14 13:26:02;;;;;;;3.57;2.00;;;;;;;;;;5026550;28;20463;-51
2023/08/14 13:28:29;;;;;;;2.90;2.20;;;;;;;;;;5030015;28;20200;-52
2023/08/14 13:30:55;;;;;;;2.90;2.03;;;;;;;;;;5029936;28;20231;-50
2023/08/14 13:33:21;;;;;;;4.63;2.33;;;;;;;;;;5030018;28;20228;-51
2023/08/14 13:35:47;;;;;;;7.83;2.70;;;;;;;;;;5029837;28;20292;-50
2023/08/14 13:38:13;;;;;;;3.57;2.30;;;;;;;;;;5029501;28;20701;-50
2023/08/14 13:40:40;;;;;;;3.07;2.03;;;;;;;;;;5029280;28;20294;-51
2023/08/14 13:43:06;;;;;;;2.97;2.20;;;;;;;;;;5029862;28;20558;-50
2023/08/14 13:45:34;;;;;;;3.97;2.13;;;;;;;;;;5029301;28;20298;-50
2023/08/14 13:48:00;;;;;;;7.57;2.37;;;;;;;;;;5029518;28;20239;-51
2023/08/14 13:50:26;;;;;;;3.00;2.10;;;;;;;;;;5029292;28;20260;-51
2023/08/14 13:52:52;;;;;;;3.80;2.10;;;;;;;;;;5029611;28;20192;-51
2023/08/14 13:55:19;;;;;;;4.33;2.53;;;;;;;;;;5032295;28;20658;-51
2023/08/14 13:57:45;;;;;;;3.93;2.30;;;;;;;;;;5033084;28;20720;-50
2023/08/14 14:00:11;;;;;;;4.70;2.37;;;;;;;;;;5033337;28;20652;-50
2023/08/14 14:02:38;;;;;;;4.43;2.47;;;;;;;;;;5033447;28;20277;-51
2023/08/14 14:05:05;;;;;;;3.37;2.20;;;;;;;;;;5033155;28;20202;-50
2023/08/14 14:07:31;;;;;;;3.97;2.40;;;;;;;;;;5031551;28;20617;-50
2023/08/14 14:09:57;;;;;;;3.87;2.00;;;;;;;;;;5033345;28;20235;-50
2023/08/14 14:12:23;;;;;;;3.90;2.43;;;;;;;;;;5033058;28;20208;-51
2023/08/14 14:14:49;;;;;;;3.40;2.10;;;;;;;;;;5031799;28;20246;-50
2023/08/14 14:17:15;;;;;;;4.87;2.50;;;;;;;;;;5032935;28;20258;-51
2023/08/14 14:19:43;;;;;;;3.50;2.30;;;;;;;;;;5032758;28;20203;-50
2023/08/14 14:22:09;;;;;;;5.50;2.40;;;;;;;;;;5032857;28;20236;-50
2023/08/14 14:24:35;;;;;;;3.27;2.30;;;;;;;;;;5033126;28;20724;-50
2023/08/14 14:27:02;;;;;;;7.20;2.87;;;;;;;;;;5031552;28;20252;-50
2023/08/14 14:29:29;;;;;;;7.03;2.40;;;;;;;;;;5032323;28;20227;-50
2023/08/14 14:31:55;;;;;;;7.43;2.40;;;;;;;;;;5032482;28;20277;-50
2023/08/14 14:34:21;;;;;;;4.67;2.30;;;;;;;;;;5032685;28;20203;-51
2023/08/14 14:36:49;;;;;;;3.80;2.40;;;;;;;;;;5032223;28;20697;-50
2023/08/14 14:39:15;;;;;;;5.17;2.33;;;;;;;;;;5032271;28;20262;-51
2023/08/14 14:41:41;;;;;;;6.80;2.73;;;;;;;;;;5032100;28;20298;-51
2023/08/14 14:44:07;;;;;;;4.90;3.33;;;;;;;;;;5032042;28;20213;-50